Time;durP1;ratioP1;P1;durP2;ratioP2;P2;SDS_P1;SDS_P2;PMS_P1;PMS_P2;Temp;Humidity;BMP_temperature;BMP_pressure;BME280_temperature;BME280_humidity;BME280_pressure;Samples;Min_cycle;Max_cycle;Signal;HPM_P1;HPM_P2
2023/05/12 00:01:57;;;;;;;6.70;6.10;;;17.80;81.00;;;;;;5053328;28;20523;-75
2023/05/12 00:04:24;;;;;;;7.10;6.27;;;17.80;81.10;;;;;;5053078;28;20969;-74
2023/05/12 00:06:51;;;;;;;7.63;5.70;;;17.70;81.10;;;;;;5053567;28;20451;-74
2023/05/12 00:09:18;;;;;;;5.77;5.27;;;17.80;81.30;;;;;;5052414;28;20555;-75
2023/05/12 00:11:47;;;;;;;7.60;6.17;;;17.70;81.20;;;;;;5053238;28;20498;-75
2023/05/12 00:14:15;;;;;;;6.43;5.83;;;17.70;81.40;;;;;;5053028;28;20853;-74
2023/05/12 00:16:42;;;;;;;7.03;6.33;;;17.70;81.50;;;;;;5053011;28;20458;-74
2023/05/12 00:19:09;;;;;;;6.70;6.00;;;17.70;81.50;;;;;;5052860;28;20452;-75
2023/05/12 00:21:36;;;;;;;6.50;5.90;;;17.70;81.40;;;;;;5052840;28;20486;-75
2023/05/12 00:24:03;;;;;;;6.23;5.63;;;17.70;81.50;;;;;;5052644;28;21083;-74
2023/05/12 00:26:30;;;;;;;6.63;5.93;;;17.70;81.40;;;;;;5052475;28;20456;-74
2023/05/12 00:28:56;;;;;;;7.00;6.30;;;17.70;81.40;;;;;;5052559;28;20966;-75
2023/05/12 00:31:25;;;;;;;7.07;6.37;;;17.60;81.30;;;;;;5052625;28;20452;-75
2023/05/12 00:33:53;;;;;;;7.10;6.40;;;17.60;81.40;;;;;;5016511;28;20510;-76
2023/05/12 00:36:19;;;;;;;7.37;6.67;;;17.60;81.50;;;;;;5052212;28;20471;-76
2023/05/12 00:38:46;;;;;;;6.13;5.53;;;17.60;81.40;;;;;;5052341;28;20480;-75
2023/05/12 00:41:13;;;;;;;6.47;5.87;;;17.60;81.40;;;;;;5052446;28;20543;-76
2023/05/12 00:43:40;;;;;;;7.73;6.80;;;17.60;81.60;;;;;;5051962;28;20448;-75
2023/05/12 00:46:07;;;;;;;6.90;6.30;;;17.60;81.70;;;;;;5052229;28;20528;-75
2023/05/12 00:48:36;;;;;;;7.37;6.67;;;17.50;82.30;;;;;;5052349;28;20535;-75
2023/05/12 00:51:05;;;;;;;7.97;6.93;;;17.60;81.70;;;;;;5052203;28;20571;-75
2023/05/12 00:53:32;;;;;;;6.73;6.13;;;17.60;81.70;;;;;;5052912;28;20587;-75
2023/05/12 00:55:59;;;;;;;7.47;6.30;;;17.60;81.70;;;;;;5052524;28;20476;-74
2023/05/12 00:58:26;;;;;;;7.53;6.27;;;17.60;81.70;;;;;;5016644;28;20830;-75
2023/05/12 01:00:53;;;;;;;7.17;6.50;;;17.50;81.60;;;;;;5052513;28;20458;-75
2023/05/12 01:03:20;;;;;;;8.07;6.57;;;17.50;82.40;;;;;;5052792;28;20457;-74
2023/05/12 01:05:52;;;;;;;7.00;6.40;;;17.50;81.90;;;;;;5052491;28;20445;-75
2023/05/12 01:08:20;;;;;;;7.73;7.03;;;17.50;81.90;;;;;;5052421;28;20993;-75
2023/05/12 01:10:48;;;;;;;7.07;6.43;;;17.50;82.00;;;;;;5052732;28;20467;-75
2023/05/12 01:13:15;;;;;;;6.70;6.07;;;17.50;82.00;;;;;;5052117;28;21008;-75
2023/05/12 01:15:48;;;;;;;7.00;6.30;;;17.50;82.20;;;;;;5051823;28;20453;-76
2023/05/12 01:18:19;;;;;;;8.30;7.33;;;17.50;82.30;;;;;;5052256;28;20488;-76
2023/05/12 01:20:48;;;;;;;9.83;7.43;;;17.50;82.30;;;;;;5054511;28;20452;-75
2023/05/12 01:23:18;;;;;;;7.57;6.87;;;17.40;82.20;;;;;;5051781;28;20484;-76
2023/05/12 01:25:48;;;;;;;7.27;6.57;;;17.40;82.30;;;;;;5052265;28;20458;-76
2023/05/12 01:28:18;;;;;;;6.90;6.30;;;17.40;82.30;;;;;;5065563;28;20448;-75
2023/05/12 01:30:47;;;;;;;8.73;6.20;;;17.40;82.40;;;;;;5051400;28;20976;-75
2023/05/12 01:33:14;;;;;;;7.80;6.87;;;17.40;82.30;;;;;;5051360;28;20480;-75
2023/05/12 01:35:40;;;;;;;7.30;6.60;;;17.40;82.20;;;;;;5051439;28;20448;-75
2023/05/12 01:38:07;;;;;;;7.50;6.80;;;17.40;82.20;;;;;;5050981;28;20473;-76
2023/05/12 01:40:35;;;;;;;7.57;6.83;;;17.40;82.10;;;;;;5051259;28;20449;-75
2023/05/12 01:43:02;;;;;;;7.77;7.07;;;17.40;82.10;;;;;;5042896;28;20477;-75
2023/05/12 01:45:30;;;;;;;7.60;6.80;;;17.40;82.20;;;;;;5051425;28;20449;-75
2023/05/12 01:47:57;;;;;;;7.43;6.73;;;17.40;82.20;;;;;;5051421;28;20539;-75
2023/05/12 01:50:24;;;;;;;7.50;6.80;;;17.40;82.40;;;;;;5051125;28;20479;-75
2023/05/12 01:52:50;;;;;;;7.33;6.63;;;17.40;82.40;;;;;;5052116;28;20483;-75
2023/05/12 01:55:20;;;;;;;7.57;6.33;;;17.40;82.40;;;;;;5052701;28;20472;-75
2023/05/12 01:57:47;;;;;;;8.07;7.27;;;17.40;82.40;;;;;;5051001;28;20984;-74
2023/05/12 02:00:15;;;;;;;7.83;6.83;;;17.40;82.40;;;;;;5052120;28;20472;-76
2023/05/12 02:02:43;;;;;;;8.27;7.30;;;17.40;82.40;;;;;;5052343;28;20448;-76
2023/05/12 02:05:10;;;;;;;8.43;7.37;;;17.30;82.30;;;;;;5052353;28;20547;-76
2023/05/12 02:07:37;;;;;;;7.90;7.07;;;17.30;82.30;;;;;;5051593;28;20972;-75
2023/05/12 02:10:04;;;;;;;8.07;7.37;;;17.30;82.40;;;;;;5051628;28;20535;-75
2023/05/12 02:12:33;;;;;;;7.83;7.13;;;17.30;82.40;;;;;;5051578;28;20494;-75
2023/05/12 02:15:00;;;;;;;7.87;7.07;;;17.30;83.10;;;;;;5051708;28;20448;-75
2023/05/12 02:17:27;;;;;;;8.33;7.53;;;17.30;82.40;;;;;;5051607;28;20494;-75
2023/05/12 02:19:55;;;;;;;7.70;7.00;;;17.30;82.50;;;;;;5051804;28;20824;-75
2023/05/12 02:22:22;;;;;;;7.80;7.00;;;17.30;82.60;;;;;;5051644;28;20813;-75
2023/05/12 02:24:49;;;;;;;9.63;7.10;;;17.30;82.60;;;;;;5051804;28;20827;-76
2023/05/12 02:27:16;;;;;;;7.83;7.13;;;17.30;82.60;;;;;;5015650;28;20877;-77
2023/05/12 02:29:43;;;;;;;7.93;7.13;;;17.30;82.60;;;;;;5054563;28;20455;-75
2023/05/12 02:32:10;;;;;;;8.33;7.03;;;17.30;82.70;;;;;;5055228;28;20480;-75
2023/05/12 02:34:36;;;;;;;7.37;6.77;;;17.30;82.70;;;;;;5055260;28;20902;-75
2023/05/12 02:37:05;;;;;;;8.27;6.90;;;17.30;82.70;;;;;;5054784;28;20467;-75
2023/05/12 02:39:32;;;;;;;8.53;7.03;;;17.30;82.80;;;;;;5053958;28;20990;-75
2023/05/12 02:41:58;;;;;;;7.23;6.53;;;17.30;82.80;;;;;;5055245;28;20882;-75
2023/05/12 02:44:27;;;;;;;7.13;6.43;;;17.30;82.70;;;;;;5019721;28;20852;-76
2023/05/12 02:46:54;;;;;;;8.70;7.13;;;17.30;82.80;;;;;;5054167;28;20448;-76
2023/05/12 02:49:20;;;;;;;7.77;6.73;;;17.30;82.80;;;;;;5054854;28;20583;-75
2023/05/12 02:51:48;;;;;;;8.83;7.30;;;17.20;83.50;;;;;;5054853;28;20478;-75
2023/05/12 02:54:16;;;;;;;9.33;7.23;;;17.20;82.70;;;;;;5039236;28;20478;-75
2023/05/12 02:56:43;;;;;;;7.60;6.90;;;17.30;82.80;;;;;;5054934;28;20472;-75
2023/05/12 02:59:10;;;;;;;6.90;6.30;;;17.20;82.90;;;;;;5054259;28;20550;-75
2023/05/12 03:01:37;;;;;;;8.03;7.23;;;17.20;82.90;;;;;;5054567;28;20540;-75
2023/05/12 03:04:04;;;;;;;8.63;7.67;;;17.20;82.90;;;;;;5055016;28;20450;-75
2023/05/12 03:06:32;;;;;;;7.40;6.70;;;17.20;83.00;;;;;;5037466;28;20456;-76
2023/05/12 03:08:59;;;;;;;7.20;6.50;;;17.20;83.00;;;;;;5034539;28;20906;-75
2023/05/12 03:11:28;;;;;;;8.80;7.17;;;17.20;83.10;;;;;;5034983;28;20451;-75
2023/05/12 03:13:55;;;;;;;9.07;7.00;;;17.20;83.10;;;;;;5050991;28;20492;-75
2023/05/12 03:16:22;;;;;;;7.10;6.40;;;17.20;83.10;;;;;;5054757;28;20528;-75
2023/05/12 03:18:49;;;;;;;6.67;6.07;;;17.20;83.30;;;;;;5054123;28;20559;-75
2023/05/12 03:21:16;;;;;;;7.87;7.07;;;17.20;83.20;;;;;;5054728;28;20450;-75
2023/05/12 03:23:43;;;;;;;6.73;6.03;;;17.20;83.30;;;;;;5018633;28;20825;-75
2023/05/12 03:26:10;;;;;;;6.63;6.03;;;17.10;83.20;;;;;;5054315;28;20878;-75
2023/05/12 03:28:39;;;;;;;6.87;6.17;;;17.20;83.20;;;;;;5054334;28;20453;-75
2023/05/12 03:31:06;;;;;;;6.87;6.17;;;17.20;83.20;;;;;;5054387;28;20456;-75
2023/05/12 03:33:33;;;;;;;7.17;6.47;;;17.20;83.10;;;;;;5053973;28;20488;-75
2023/05/12 03:36:00;;;;;;;6.20;5.60;;;17.20;83.30;;;;;;5036668;28;20814;-75
2023/05/12 03:38:27;;;;;;;5.90;5.30;;;17.10;83.10;;;;;;5053888;28;20921;-75
2023/05/12 03:41:03;;;;;;;6.53;5.60;;;17.20;83.00;;;;;;5053614;28;20455;-74
2023/05/12 03:43:30;;;;;;;6.80;6.20;;;17.20;83.20;;;;;;5053809;28;20454;-76
2023/05/12 03:45:59;;;;;;;7.03;6.43;;;17.20;83.10;;;;;;5054177;28;20465;-75
2023/05/12 03:48:25;;;;;;;6.13;5.60;;;17.20;83.20;;;;;;5053895;28;20452;-75
2023/05/12 03:50:53;;;;;;;6.27;5.67;;;17.10;83.10;;;;;;5052625;28;20460;-75
2023/05/12 03:53:22;;;;;;;8.00;7.20;;;17.10;83.10;;;;;;5051109;28;20492;-75
2023/05/12 03:55:49;;;;;;;7.40;6.70;;;17.10;83.20;;;;;;5053605;28;20451;-75
2023/05/12 03:58:15;;;;;;;6.40;5.80;;;17.10;83.30;;;;;;5053600;28;20508;-75
2023/05/12 04:00:42;;;;;;;7.27;6.57;;;17.10;83.30;;;;;;5053938;28;20459;-75
2023/05/12 04:03:10;;;;;;;7.60;6.90;;;17.10;83.30;;;;;;5053594;28;20449;-75
2023/05/12 04:05:38;;;;;;;6.50;5.73;;;17.10;83.30;;;;;;5053097;28;20456;-75
2023/05/12 04:08:05;;;;;;;8.03;6.13;;;17.10;83.30;;;;;;5053386;28;20448;-75
2023/05/12 04:10:32;;;;;;;7.17;6.27;;;17.10;83.30;;;;;;5052902;28;20479;-75
2023/05/12 04:12:59;;;;;;;6.93;6.33;;;17.10;83.20;;;;;;5053363;28;20495;-75
2023/05/12 04:15:26;;;;;;;7.77;6.60;;;17.10;83.10;;;;;;5062903;28;20562;-75
2023/05/12 04:17:53;;;;;;;6.13;5.60;;;17.10;83.20;;;;;;5073799;28;20522;-74
2023/05/12 04:20:21;;;;;;;6.70;6.10;;;17.10;83.20;;;;;;5037877;28;20460;-75
2023/05/12 04:22:48;;;;;;;5.83;5.23;;;17.10;83.30;;;;;;5053125;28;20444;-75
2023/05/12 04:25:15;;;;;;;6.13;5.53;;;17.10;83.30;;;;;;5053273;28;20945;-74
2023/05/12 04:27:41;;;;;;;6.10;5.50;;;17.10;83.30;;;;;;5053327;28;20459;-75
2023/05/12 04:30:09;;;;;;;6.20;5.60;;;17.10;83.40;;;;;;5052786;28;20464;-74
2023/05/12 04:32:36;;;;;;;6.30;5.70;;;17.10;83.40;;;;;;5053036;28;20818;-76
2023/05/12 04:35:04;;;;;;;5.80;5.07;;;17.10;83.20;;;;;;5052515;28;20448;-75
2023/05/12 04:37:32;;;;;;;6.63;6.00;;;17.10;83.10;;;;;;5053309;28;20937;-75
2023/05/12 04:39:59;;;;;;;5.80;5.30;;;17.10;83.10;;;;;;5052421;28;20452;-75
2023/05/12 04:42:25;;;;;;;6.03;5.43;;;17.10;83.40;;;;;;5052258;28;20455;-75
2023/05/12 04:44:52;;;;;;;6.53;5.37;;;17.10;83.20;;;;;;5052882;28;20472;-75
2023/05/12 04:47:19;;;;;;;5.83;5.37;;;17.20;83.30;;;;;;5052874;28;20452;-76
2023/05/12 04:49:46;;;;;;;6.17;5.60;;;17.20;83.30;;;;;;5052162;28;20551;-75
2023/05/12 04:52:13;;;;;;;6.00;5.40;;;17.20;83.30;;;;;;5051706;28;20455;-75
2023/05/12 04:54:41;;;;;;;5.83;5.20;;;17.10;83.50;;;;;;5052606;28;20488;-75
2023/05/12 04:57:08;;;;;;;5.60;5.10;;;17.20;83.70;;;;;;5052792;28;20928;-75
2023/05/12 04:59:35;;;;;;;5.23;4.70;;;17.20;83.70;;;;;;5052485;28;20995;-76
2023/05/12 05:02:02;;;;;;;5.73;4.83;;;17.20;83.50;;;;;;5051554;28;20476;-76
2023/05/12 05:04:29;;;;;;;5.97;5.37;;;17.20;83.60;;;;;;5052042;28;20616;-75
2023/05/12 05:06:56;;;;;;;5.20;4.80;;;17.20;83.50;;;;;;5052811;28;20469;-75
2023/05/12 05:09:24;;;;;;;5.17;4.73;;;17.20;83.60;;;;;;5052288;28;20543;-75
2023/05/12 05:11:52;;;;;;;6.00;5.20;;;17.20;83.50;;;;;;5001212;28;20455;-75
2023/05/12 05:14:19;;;;;;;5.60;4.97;;;17.20;83.30;;;;;;5052193;28;21023;-75
2023/05/12 05:16:47;;;;;;;5.60;5.00;;;17.20;84.10;;;;;;5052549;28;20535;-74
2023/05/12 05:19:15;;;;;;;5.00;4.50;;;17.20;83.20;;;;;;5051686;28;20484;-76
2023/05/12 05:21:42;;;;;;;5.50;5.00;;;17.30;83.40;;;;;;5043415;28;20976;-74
2023/05/12 05:24:09;;;;;;;5.93;5.33;;;17.30;83.70;;;;;;5052311;28;21179;-76
2023/05/12 05:26:36;;;;;;;5.07;4.57;;;17.30;83.50;;;;;;5052974;28;20459;-75
2023/05/12 05:29:05;;;;;;;5.00;4.50;;;17.30;83.20;;;;;;5053267;28;20544;-76
2023/05/12 05:31:31;;;;;;;4.27;3.87;;;17.30;83.30;;;;;;5055164;28;20456;-76
2023/05/12 05:33:58;;;;;;;4.70;4.20;;;17.30;83.50;;;;;;5073454;28;20551;-75
2023/05/12 05:36:26;;;;;;;4.43;4.03;;;17.40;83.70;;;;;;5060065;28;20543;-79
2023/05/12 05:38:52;;;;;;;3.90;3.60;;;17.40;83.70;;;;;;5076549;28;20448;-79
2023/05/12 05:41:20;;;;;;;5.23;4.20;;;17.40;83.60;;;;;;5076710;28;20511;-80
2023/05/12 05:43:46;;;;;;;3.90;3.60;;;17.50;83.90;;;;;;5075495;28;20440;-78
2023/05/12 05:46:15;;;;;;;4.23;3.93;;;17.50;83.70;;;;;;5042572;28;20571;-76
2023/05/12 05:48:42;;;;;;;4.00;3.70;;;17.60;83.50;;;;;;5036290;28;20963;-79
2023/05/12 05:51:10;;;;;;;3.80;3.50;;;17.60;83.50;;;;;;5053028;28;20458;-80
2023/05/12 05:53:37;;;;;;;4.13;3.60;;;17.60;83.20;;;;;;5052728;28;20824;-77
2023/05/12 05:56:04;;;;;;;4.00;3.60;;;17.70;83.20;;;;;;5053250;28;20828;-76
2023/05/12 05:58:31;;;;;;;4.37;3.80;;;17.70;83.20;;;;;;5052200;28;20481;-77
2023/05/12 06:00:59;;;;;;;4.10;3.40;;;17.80;82.80;;;;;;5018403;28;20448;-77
2023/05/12 06:03:27;;;;;;;3.33;3.03;;;17.80;82.50;;;;;;5053643;28;20476;-77
2023/05/12 06:05:54;;;;;;;3.13;2.90;;;17.80;82.50;;;;;;5056218;28;20471;-76
2023/05/12 06:08:21;;;;;;;3.77;3.37;;;17.80;82.50;;;;;;5056198;28;20543;-76
2023/05/12 06:10:48;;;;;;;4.03;3.13;;;17.80;82.20;;;;;;5056708;28;20443;-76
2023/05/12 06:13:15;;;;;;;2.80;2.60;;;17.90;82.30;;;;;;5056527;28;20495;-77
2023/05/12 06:15:42;;;;;;;3.27;2.97;;;17.90;82.30;;;;;;5056943;28;20478;-77
2023/05/12 06:18:09;;;;;;;3.47;3.00;;;17.90;81.70;;;;;;5056630;28;20460;-78
2023/05/12 06:20:37;;;;;;;3.03;2.67;;;17.90;81.80;;;;;;5056717;28;20487;-78
2023/05/12 06:23:05;;;;;;;3.20;3.00;;;18.00;82.10;;;;;;5056476;28;20568;-78
2023/05/12 06:25:32;;;;;;;3.70;3.23;;;18.00;82.10;;;;;;5055457;28;20540;-79
2023/05/12 06:27:59;;;;;;;6.90;2.90;;;18.10;82.10;;;;;;5016005;28;20457;-78
2023/05/12 06:30:26;;;;;;;3.40;3.10;;;18.00;81.90;;;;;;5018649;28;20885;-76
2023/05/12 06:32:53;;;;;;;3.60;3.30;;;18.10;82.10;;;;;;5052823;28;20842;-78
2023/05/12 06:35:20;;;;;;;3.93;3.20;;;18.10;82.00;;;;;;5048014;28;20595;-77
2023/05/12 06:37:49;;;;;;;3.63;3.20;;;18.20;82.20;;;;;;5056152;28;20471;-77
2023/05/12 06:40:16;;;;;;;3.30;3.00;;;18.20;81.40;;;;;;5055823;28;20455;-77
2023/05/12 06:42:43;;;;;;;3.80;3.00;;;18.20;81.30;;;;;;5038120;28;20570;-75
2023/05/12 06:45:11;;;;;;;3.30;3.10;;;18.30;81.40;;;;;;5037569;28;20948;-76
2023/05/12 06:47:38;;;;;;;3.70;3.40;;;18.30;81.30;;;;;;5055362;28;20806;-77
2023/05/12 06:50:07;;;;;;;3.60;3.30;;;18.30;81.30;;;;;;5055377;28;20472;-76
2023/05/12 06:52:34;;;;;;;3.50;3.20;;;18.30;80.90;;;;;;5055648;28;20455;-77
2023/05/12 06:55:02;;;;;;;3.70;3.40;;;18.40;81.30;;;;;;5055793;28;20489;-77
2023/05/12 06:57:29;;;;;;;3.67;3.37;;;18.40;81.30;;;;;;5057780;28;20483;-76
2023/05/12 06:59:56;;;;;;;3.70;3.40;;;18.50;81.00;;;;;;5056171;28;20544;-75
2023/05/12 07:02:23;;;;;;;3.80;3.47;;;18.50;80.70;;;;;;5037100;28;20563;-76
2023/05/12 07:04:50;;;;;;;3.73;3.43;;;18.50;81.10;;;;;;5036372;28;20444;-76
2023/05/12 07:07:17;;;;;;;4.53;3.60;;;18.60;80.90;;;;;;5055704;28;20476;-77
2023/05/12 07:09:44;;;;;;;4.10;3.77;;;18.60;80.90;;;;;;5055206;28;21019;-76
2023/05/12 07:12:13;;;;;;;4.03;3.67;;;18.60;81.00;;;;;;5055109;28;20456;-77
2023/05/12 07:14:40;;;;;;;3.97;3.67;;;18.70;80.70;;;;;;5053904;28;20512;-76
2023/05/12 07:17:07;;;;;;;3.77;3.47;;;18.70;80.50;;;;;;5054645;28;20452;-77
2023/05/12 07:19:34;;;;;;;4.40;3.53;;;18.80;80.70;;;;;;5054656;28;20486;-76
2023/05/12 07:22:01;;;;;;;4.33;3.93;;;18.80;80.50;;;;;;5054375;28;20457;-76
2023/05/12 07:24:28;;;;;;;4.17;3.70;;;18.80;80.60;;;;;;5054713;28;20476;-76
2023/05/12 07:26:55;;;;;;;4.40;4.00;;;18.90;80.50;;;;;;5054187;28;20499;-76
2023/05/12 07:29:23;;;;;;;4.37;3.50;;;18.90;80.70;;;;;;5054137;28;20519;-76
2023/05/12 07:31:50;;;;;;;3.57;3.27;;;19.00;81.00;;;;;;5054229;28;20564;-76
2023/05/12 07:34:17;;;;;;;5.53;4.10;;;19.00;80.80;;;;;;5054059;28;20476;-75
2023/05/12 07:36:44;;;;;;;4.27;3.87;;;19.10;80.70;;;;;;5054028;28;20452;-75
2023/05/12 07:39:12;;;;;;;4.40;4.00;;;19.10;80.90;;;;;;5050180;28;20881;-76
2023/05/12 07:41:39;;;;;;;4.00;3.70;;;19.10;80.70;;;;;;5054257;28;20280;-75
2023/05/12 07:44:06;;;;;;;4.97;4.47;;;19.10;80.20;;;;;;5053729;28;20531;-75
2023/05/12 07:46:35;;;;;;;4.77;4.27;;;19.20;80.30;;;;;;5053856;28;20548;-76
2023/05/12 07:49:01;;;;;;;4.93;4.43;;;19.20;80.10;;;;;;5054271;28;20216;-75
2023/05/12 07:51:28;;;;;;;5.20;4.70;;;19.20;79.70;;;;;;5056177;28;20570;-75
2023/05/12 07:53:56;;;;;;;4.90;4.50;;;19.20;80.10;;;;;;5053990;28;20824;-76
2023/05/12 07:56:23;;;;;;;4.67;4.27;;;19.20;80.20;;;;;;5053523;28;20740;-74
2023/05/12 07:58:51;;;;;;;5.67;5.17;;;19.10;79.80;;;;;;5052471;28;20261;-77
2023/05/12 08:01:18;;;;;;;5.97;5.47;;;19.10;80.20;;;;;;5054041;28;20460;-75
2023/05/12 08:03:46;;;;;;;6.50;5.90;;;19.10;80.40;;;;;;5053516;28;20234;-75
2023/05/12 08:06:13;;;;;;;5.80;5.20;;;19.00;80.10;;;;;;5018197;28;20513;-73
2023/05/12 08:08:40;;;;;;;5.37;4.87;;;19.00;80.10;;;;;;5053502;28;20563;-75
2023/05/12 08:11:06;;;;;;;6.07;5.13;;;19.00;80.20;;;;;;5053635;28;20292;-76
2023/05/12 08:13:33;;;;;;;6.07;5.47;;;19.00;80.00;;;;;;5052756;28;20970;-75
2023/05/12 08:16:00;;;;;;;6.37;5.77;;;19.00;80.20;;;;;;5053449;28;20540;-76
2023/05/12 08:18:28;;;;;;;6.97;6.37;;;19.00;80.70;;;;;;5053201;28;20452;-75
2023/05/12 08:20:56;;;;;;;6.17;5.67;;;19.00;80.80;;;;;;5053043;28;20341;-75
2023/05/12 08:23:23;;;;;;;7.07;6.37;;;19.00;81.00;;;;;;5053379;28;20821;-73
2023/05/12 08:25:50;;;;;;;7.50;6.10;;;19.10;81.30;;;;;;5052459;28;20440;-75
2023/05/12 08:28:17;;;;;;;6.73;6.03;;;19.10;81.10;;;;;;5052496;28;20511;-73
2023/05/12 08:30:44;;;;;;;6.47;5.77;;;19.20;81.00;;;;;;5035823;28;20241;-75
2023/05/12 08:33:11;;;;;;;5.50;5.00;;;19.30;80.70;;;;;;5052613;28;20534;-74
2023/05/12 08:35:38;;;;;;;6.00;5.40;;;19.30;80.50;;;;;;5053304;28;20222;-75
2023/05/12 08:38:07;;;;;;;5.30;4.80;;;19.40;80.50;;;;;;5052965;28;20206;-75
2023/05/12 08:40:41;;;;;;;5.43;4.97;;;19.50;79.80;;;;;;5053136;28;20209;-74
2023/05/12 08:43:19;;;;;;;5.17;4.67;;;19.60;80.10;;;;;;5034672;28;20203;-75
2023/05/12 08:45:46;;;;;;;4.93;4.43;;;19.70;80.20;;;;;;5052962;28;20287;-76
2023/05/12 08:48:15;;;;;;;4.67;4.27;;;19.70;79.50;;;;;;5052661;28;20284;-75
2023/05/12 08:50:43;;;;;;;4.40;3.90;;;19.80;79.70;;;;;;5052911;28;20320;-74
2023/05/12 08:53:13;;;;;;;3.80;3.50;;;19.90;79.60;;;;;;5052182;28;20458;-74
2023/05/12 08:55:42;;;;;;;4.00;3.60;;;19.90;79.20;;;;;;5051794;28;20551;-75
2023/05/12 08:58:09;;;;;;;3.20;3.00;;;19.90;79.70;;;;;;5052334;28;20229;-76
2023/05/12 09:00:39;;;;;;;3.50;3.20;;;20.00;79.30;;;;;;5052365;28;20213;-75
2023/05/12 09:03:07;;;;;;;3.40;3.10;;;20.00;78.60;;;;;;5052360;28;20710;-74
2023/05/12 09:05:35;;;;;;;4.00;3.60;;;20.10;78.20;;;;;;5052533;28;20212;-76
2023/05/12 09:08:02;;;;;;;3.43;3.13;;;20.10;78.30;;;;;;5052815;28;20207;-74
2023/05/12 09:10:31;;;;;;;3.50;3.20;;;20.20;78.30;;;;;;5053763;28;20253;-77
2023/05/12 09:13:04;;;;;;;3.30;3.00;;;20.20;77.60;;;;;;5042713;28;20285;-78
2023/05/12 09:15:35;;;;;;;4.00;2.90;;;20.20;77.20;;;;;;5053364;28;20245;-79
2023/05/12 09:18:02;;;;;;;2.90;2.63;;;20.20;76.60;;;;;;5052855;28;20289;-77
2023/05/12 09:20:29;;;;;;;2.80;2.60;;;20.20;76.70;;;;;;5052971;28;20201;-79
2023/05/12 09:22:57;;;;;;;3.07;2.87;;;20.10;76.40;;;;;;5053262;28;20239;-77
2023/05/12 09:25:24;;;;;;;3.00;2.80;;;20.10;76.40;;;;;;5053017;28;20201;-78
2023/05/12 09:27:56;;;;;;;3.27;2.97;;;20.00;76.60;;;;;;5053063;28;20237;-76
2023/05/12 09:30:30;;;;;;;3.23;2.73;;;20.00;76.50;;;;;;5053015;28;20213;-74
2023/05/12 09:33:06;;;;;;;4.23;3.00;;;19.90;76.40;;;;;;5052801;28;20212;-76
2023/05/12 09:35:39;;;;;;;3.20;3.00;;;19.90;77.00;;;;;;5052524;28;20224;-77
2023/05/12 09:38:07;;;;;;;3.40;3.10;;;19.80;78.30;;;;;;5052833;28;20209;-75
2023/05/12 09:40:34;;;;;;;2.93;2.73;;;19.70;77.60;;;;;;5052982;28;20557;-77
2023/05/12 09:43:04;;;;;;;3.73;3.17;;;19.60;78.00;;;;;;5053246;28;20646;-77
2023/05/12 09:45:34;;;;;;;4.03;3.10;;;19.60;78.60;;;;;;5035803;28;20512;-76
2023/05/12 09:48:09;;;;;;;3.97;3.10;;;19.50;78.90;;;;;;5052838;28;20206;-78
2023/05/12 09:50:43;;;;;;;2.60;2.40;;;19.50;79.20;;;;;;5053241;28;20224;-77
2023/05/12 09:53:10;;;;;;;2.00;1.77;;;19.50;79.70;;;;;;5052633;28;20234;-76
2023/05/12 09:55:37;;;;;;;1.87;1.50;;;19.50;79.10;;;;;;5052556;28;21005;-77
2023/05/12 09:58:09;;;;;;;1.33;1.23;;;19.50;78.40;;;;;;5052849;28;20229;-77
2023/05/12 10:00:38;;;;;;;3.00;1.70;;;19.50;78.70;;;;;;5052670;28;20209;-78
2023/05/12 10:03:10;;;;;;;2.20;2.00;;;19.50;78.50;;;;;;5053032;28;20780;-77
2023/05/12 10:05:44;;;;;;;2.77;1.80;;;19.50;78.60;;;;;;5052959;28;20476;-78
2023/05/12 10:08:19;;;;;;;2.40;2.20;;;19.50;77.50;;;;;;5052451;28;20280;-77
2023/05/12 10:10:50;;;;;;;1.90;1.80;;;19.50;78.00;;;;;;5052518;28;20256;-77
2023/05/12 10:13:19;;;;;;;1.87;1.60;;;19.60;77.70;;;;;;5052844;28;20452;-77
2023/05/12 10:15:48;;;;;;;2.10;1.90;;;19.60;77.60;;;;;;5017485;28;20480;-77
2023/05/12 10:18:16;;;;;;;2.70;1.83;;;19.60;77.10;;;;;;5053046;28;20209;-76
2023/05/12 10:20:45;;;;;;;1.60;1.50;;;19.70;77.70;;;;;;5052430;28;20459;-76
2023/05/12 10:23:13;;;;;;;1.60;1.50;;;19.70;77.60;;;;;;5032303;28;20230;-76
2023/05/12 10:25:42;;;;;;;1.50;1.40;;;19.80;76.70;;;;;;5032878;28;20299;-77
2023/05/12 10:28:10;;;;;;;1.47;1.30;;;19.80;77.60;;;;;;5032460;28;20281;-77
2023/05/12 10:30:40;;;;;;;2.07;1.97;;;19.80;77.30;;;;;;5032652;28;20215;-77
2023/05/12 10:33:10;;;;;;;2.10;2.00;;;19.90;77.00;;;;;;5051109;28;20289;-77
2023/05/12 10:35:38;;;;;;;2.43;2.23;;;20.00;76.90;;;;;;5052501;28;20582;-76
2023/05/12 10:38:10;;;;;;;3.27;3.07;;;20.00;77.20;;;;;;5051740;28;20204;-77
2023/05/12 10:40:37;;;;;;;3.27;3.07;;;20.10;77.40;;;;;;5052374;28;20677;-75
2023/05/12 10:43:05;;;;;;;3.43;3.13;;;20.10;77.60;;;;;;5051050;28;20725;-76
2023/05/12 10:45:36;;;;;;;3.43;3.13;;;20.20;77.50;;;;;;5052159;28;20244;-75
2023/05/12 10:48:08;;;;;;;3.10;2.80;;;20.20;77.90;;;;;;5051499;28;20312;-76
2023/05/12 10:50:35;;;;;;;3.20;2.17;;;20.30;78.40;;;;;;5054269;28;20623;-75
2023/05/12 10:53:02;;;;;;;2.43;2.23;;;20.30;78.30;;;;;;5019573;28;20313;-75
2023/05/12 10:55:42;;;;;;;2.80;2.60;;;20.40;77.80;;;;;;5055589;28;20206;-76
2023/05/12 10:58:10;;;;;;;2.20;2.00;;;20.50;76.50;;;;;;5055475;28;20268;-75
2023/05/12 11:00:49;;;;;;;2.10;1.90;;;20.60;75.50;;;;;;5055381;28;20459;-76
2023/05/12 11:03:24;;;;;;;2.20;2.10;;;20.60;74.70;;;;;;5055153;28;20211;-76
2023/05/12 11:06:00;;;;;;;2.60;2.40;;;20.70;74.80;;;;;;5054857;28;20313;-76
2023/05/12 11:08:27;;;;;;;2.20;2.00;;;20.80;74.60;;;;;;5054870;28;20837;-76
2023/05/12 11:10:54;;;;;;;1.83;1.73;;;20.90;75.00;;;;;;5063112;28;20226;-76
2023/05/12 11:13:21;;;;;;;2.03;1.93;;;21.00;73.90;;;;;;5078871;28;20205;-77
2023/05/12 11:15:49;;;;;;;2.40;2.20;;;21.00;74.00;;;;;;5081461;28;20578;-77
2023/05/12 11:18:22;;;;;;;1.80;1.70;;;21.10;74.00;;;;;;5072454;28;20230;-75
2023/05/12 11:20:49;;;;;;;4.93;2.20;;;21.10;74.00;;;;;;5051969;28;20221;-76
2023/05/12 11:23:27;;;;;;;2.57;1.90;;;21.20;73.10;;;;;;5054383;28;20280;-77
2023/05/12 11:25:54;;;;;;;2.30;2.10;;;21.20;72.80;;;;;;5002599;28;20304;-76
2023/05/12 11:28:22;;;;;;;2.03;1.90;;;21.30;73.20;;;;;;5055626;28;20266;-76
2023/05/12 11:30:51;;;;;;;2.70;2.30;;;21.30;72.80;;;;;;5035417;28;20201;-77
2023/05/12 11:33:21;;;;;;;3.27;2.50;;;21.30;73.70;;;;;;5054045;28;20202;-75
2023/05/12 11:35:48;;;;;;;2.50;2.30;;;21.30;72.90;;;;;;5053908;28;20240;-75
2023/05/12 11:38:17;;;;;;;2.33;2.07;;;21.30;73.60;;;;;;5054464;28;20213;-76
2023/05/12 11:40:44;;;;;;;2.60;2.40;;;21.30;74.70;;;;;;5037050;28;20212;-77
2023/05/12 11:43:13;;;;;;;2.30;2.10;;;21.30;74.50;;;;;;5054208;28;20205;-76
2023/05/12 11:45:41;;;;;;;2.77;2.47;;;21.30;74.20;;;;;;5054529;28;20205;-76
2023/05/12 11:48:10;;;;;;;3.10;2.70;;;21.20;74.10;;;;;;5054053;28;20228;-77
2023/05/12 11:50:42;;;;;;;2.90;2.50;;;21.10;74.00;;;;;;5054054;28;20212;-76
2023/05/12 11:53:14;;;;;;;2.23;2.07;;;21.10;74.40;;;;;;5054328;28;20722;-76
2023/05/12 11:55:49;;;;;;;3.20;2.90;;;21.20;75.00;;;;;;5053943;28;20233;-76
2023/05/12 11:58:21;;;;;;;2.90;2.70;;;21.20;74.20;;;;;;5053737;28;20225;-76
2023/05/12 12:00:48;;;;;;;3.10;2.80;;;21.20;74.10;;;;;;5054175;28;20593;-76
2023/05/12 12:03:16;;;;;;;3.27;2.97;;;21.20;74.10;;;;;;5053787;28;20289;-76
2023/05/12 12:05:58;;;;;;;3.70;3.27;;;21.30;74.50;;;;;;5053644;28;20208;-76
2023/05/12 12:08:25;;;;;;;3.47;2.70;;;21.30;75.00;;;;;;5053880;28;20292;-76
2023/05/12 12:10:52;;;;;;;3.50;3.20;;;21.40;75.10;;;;;;5054049;28;20205;-76
2023/05/12 12:13:21;;;;;;;3.47;3.17;;;21.50;75.20;;;;;;5054070;28;20634;-76
2023/05/12 12:15:48;;;;;;;3.63;3.33;;;21.70;76.20;;;;;;5053674;28;20252;-76
2023/05/12 12:18:15;;;;;;;2.93;2.70;;;21.90;76.10;;;;;;5034753;28;20236;-75
2023/05/12 12:20:43;;;;;;;3.27;2.93;;;22.10;75.50;;;;;;5053858;28;20248;-76
2023/05/12 12:23:10;;;;;;;2.67;2.47;;;22.30;73.90;;;;;;5053462;28;20215;-76
2023/05/12 12:25:37;;;;;;;4.47;2.53;;;22.50;73.20;;;;;;5014990;28;20230;-77
2023/05/12 12:28:04;;;;;;;2.57;2.37;;;22.60;72.50;;;;;;5053633;28;20264;-76
2023/05/12 12:30:31;;;;;;;2.30;2.10;;;22.80;71.60;;;;;;5018627;28;20229;-76
2023/05/12 12:32:58;;;;;;;2.40;2.20;;;23.00;71.40;;;;;;5053110;28;20198;-77
2023/05/12 12:35:25;;;;;;;2.33;2.07;;;23.20;71.40;;;;;;5053587;28;20639;-76
2023/05/12 12:37:54;;;;;;;2.80;2.30;;;23.30;71.20;;;;;;5053402;28;20197;-76
2023/05/12 12:40:21;;;;;;;2.80;2.60;;;23.50;70.10;;;;;;5053495;28;20260;-75
2023/05/12 12:42:47;;;;;;;2.40;2.20;;;23.50;69.50;;;;;;5053358;28;20229;-74
2023/05/12 12:45:16;;;;;;;3.60;2.60;;;23.50;69.40;;;;;;5053342;28;20307;-76
2023/05/12 12:47:43;;;;;;;2.70;2.50;;;23.50;69.50;;;;;;5053401;28;20237;-76
2023/05/12 12:50:10;;;;;;;2.67;2.30;;;23.50;69.20;;;;;;5053610;28;20212;-76
2023/05/12 12:52:37;;;;;;;2.70;2.40;;;23.50;69.20;;;;;;5053646;28;20292;-77